sensor_id;sensor_type;location;lat;lon;timestamp;P1;durP1;ratioP1;P2;durP2;ratioP2
26838;SDS011;40088;51.214;6.786;2023-08-08T00:00:24;8.23;;;6.32;;
26838;SDS011;40088;51.214;6.786;2023-08-08T00:10:24;8.25;;;5.28;;
26838;SDS011;40088;51.214;6.786;2023-08-08T00:20:24;8.73;;;6.20;;
26838;SDS011;40088;51.214;6.786;2023-08-08T00:30:25;12.40;;;8.35;;
26838;SDS011;40088;51.214;6.786;2023-08-08T00:40:25;10.40;;;7.75;;
26838;SDS011;40088;51.214;6.786;2023-08-08T00:50:25;8.65;;;5.78;;
26838;SDS011;40088;51.214;6.786;2023-08-08T01:00:25;8.50;;;4.85;;
26838;SDS011;40088;51.214;6.786;2023-08-08T01:10:29;12.35;;;7.22;;
26838;SDS011;40088;51.214;6.786;2023-08-08T01:20:33;8.57;;;5.82;;
26838;SDS011;40088;51.214;6.786;2023-08-08T01:30:35;6.68;;;3.70;;
26838;SDS011;40088;51.214;6.786;2023-08-08T01:40:35;7.40;;;4.97;;
26838;SDS011;40088;51.214;6.786;2023-08-08T01:50:36;20.58;;;12.95;;
26838;SDS011;40088;51.214;6.786;2023-08-08T02:00:40;9.55;;;6.45;;
26838;SDS011;40088;51.214;6.786;2023-08-08T02:10:41;6.70;;;4.70;;
26838;SDS011;40088;51.214;6.786;2023-08-08T02:20:41;7.18;;;5.28;;
26838;SDS011;40088;51.214;6.786;2023-08-08T02:30:41;7.28;;;4.90;;
26838;SDS011;40088;51.214;6.786;2023-08-08T02:40:42;7.88;;;5.45;;
26838;SDS011;40088;51.214;6.786;2023-08-08T02:50:42;7.15;;;4.78;;
26838;SDS011;40088;51.214;6.786;2023-08-08T03:00:42;7.45;;;5.88;;
26838;SDS011;40088;51.214;6.786;2023-08-08T03:10:42;7.78;;;5.70;;
26838;SDS011;40088;51.214;6.786;2023-08-08T03:20:43;9.50;;;7.20;;
26838;SDS011;40088;51.214;6.786;2023-08-08T03:30:43;5.88;;;3.88;;
26838;SDS011;40088;51.214;6.786;2023-08-08T03:40:43;8.90;;;6.90;;
26838;SDS011;40088;51.214;6.786;2023-08-08T03:50:43;3.38;;;2.13;;
26838;SDS011;40088;51.214;6.786;2023-08-08T04:00:46;6.65;;;4.65;;
26838;SDS011;40088;51.214;6.786;2023-08-08T04:10:46;20.35;;;13.88;;
26838;SDS011;40088;51.214;6.786;2023-08-08T04:20:47;11.57;;;8.25;;
26838;SDS011;40088;51.214;6.786;2023-08-08T04:30:47;16.65;;;10.50;;
26838;SDS011;40088;51.214;6.786;2023-08-08T04:40:47;6.65;;;3.70;;
26838;SDS011;40088;51.214;6.786;2023-08-08T04:50:48;14.35;;;9.85;;
26838;SDS011;40088;51.214;6.786;2023-08-08T05:00:48;11.88;;;7.13;;
26838;SDS011;40088;51.214;6.786;2023-08-08T05:10:50;12.27;;;9.13;;
26838;SDS011;40088;51.214;6.786;2023-08-08T05:20:50;9.00;;;5.55;;
26838;SDS011;40088;51.214;6.786;2023-08-08T05:30:51;12.25;;;8.82;;
26838;SDS011;40088;51.214;6.786;2023-08-08T05:40:51;14.70;;;9.45;;
26838;SDS011;40088;51.214;6.786;2023-08-08T05:50:51;20.00;;;14.02;;
26838;SDS011;40088;51.214;6.786;2023-08-08T06:00:51;11.20;;;6.97;;
26838;SDS011;40088;51.214;6.786;2023-08-08T06:10:52;13.77;;;10.50;;
26838;SDS011;40088;51.214;6.786;2023-08-08T06:20:52;16.40;;;11.30;;
26838;SDS011;40088;51.214;6.786;2023-08-08T06:30:52;13.60;;;9.88;;
26838;SDS011;40088;51.214;6.786;2023-08-08T06:40:53;11.82;;;8.50;;
26838;SDS011;40088;51.214;6.786;2023-08-08T06:50:53;16.15;;;11.00;;
26838;SDS011;40088;51.214;6.786;2023-08-08T07:00:54;14.57;;;9.70;;
26838;SDS011;40088;51.214;6.786;2023-08-08T07:10:54;24.67;;;18.50;;
26838;SDS011;40088;51.214;6.786;2023-08-08T07:20:56;16.15;;;10.18;;
26838;SDS011;40088;51.214;6.786;2023-08-08T07:30:56;9.77;;;6.47;;
26838;SDS011;40088;51.214;6.786;2023-08-08T07:40:57;10.82;;;6.70;;
26838;SDS011;40088;51.214;6.786;2023-08-08T07:50:57;12.35;;;7.28;;
26838;SDS011;40088;51.214;6.786;2023-08-08T08:00:57;9.63;;;6.15;;
26838;SDS011;40088;51.214;6.786;2023-08-08T08:10:59;10.35;;;5.57;;
26838;SDS011;40088;51.214;6.786;2023-08-08T08:20:59;9.88;;;5.70;;
26838;SDS011;40088;51.214;6.786;2023-08-08T08:31:03;8.27;;;5.33;;
26838;SDS011;40088;51.214;6.786;2023-08-08T08:41:05;8.82;;;4.82;;
26838;SDS011;40088;51.214;6.786;2023-08-08T08:51:05;9.50;;;4.43;;
26838;SDS011;40088;51.214;6.786;2023-08-08T09:01:07;8.63;;;3.70;;
26838;SDS011;40088;51.214;6.786;2023-08-08T09:11:07;8.23;;;4.10;;
26838;SDS011;40088;51.214;6.786;2023-08-08T09:21:08;9.25;;;5.38;;
26838;SDS011;40088;51.214;6.786;2023-08-08T09:31:09;6.50;;;3.50;;
26838;SDS011;40088;51.214;6.786;2023-08-08T09:41:11;4.60;;;3.15;;
26838;SDS011;40088;51.214;6.786;2023-08-08T09:51:12;5.68;;;3.65;;
26838;SDS011;40088;51.214;6.786;2023-08-08T10:01:13;5.03;;;3.00;;
26838;SDS011;40088;51.214;6.786;2023-08-08T10:11:14;7.13;;;3.25;;
26838;SDS011;40088;51.214;6.786;2023-08-08T10:21:15;8.13;;;3.43;;
26838;SDS011;40088;51.214;6.786;2023-08-08T10:31:18;8.57;;;3.67;;
26838;SDS011;40088;51.214;6.786;2023-08-08T10:41:20;6.23;;;4.30;;
26838;SDS011;40088;51.214;6.786;2023-08-08T10:51:31;6.43;;;4.07;;
26838;SDS011;40088;51.214;6.786;2023-08-08T11:01:33;7.35;;;3.90;;
26838;SDS011;40088;51.214;6.786;2023-08-08T11:11:38;7.40;;;3.95;;
26838;SDS011;40088;51.214;6.786;2023-08-08T11:21:43;5.80;;;3.95;;
26838;SDS011;40088;51.214;6.786;2023-08-08T11:31:44;5.35;;;3.38;;
26838;SDS011;40088;51.214;6.786;2023-08-08T11:41:45;4.43;;;2.93;;
26838;SDS011;40088;51.214;6.786;2023-08-08T11:51:45;6.65;;;3.63;;
26838;SDS011;40088;51.214;6.786;2023-08-08T12:01:46;7.30;;;3.88;;
26838;SDS011;40088;51.214;6.786;2023-08-08T12:11:50;7.20;;;4.23;;
26838;SDS011;40088;51.214;6.786;2023-08-08T12:21:51;6.63;;;4.35;;
26838;SDS011;40088;51.214;6.786;2023-08-08T12:31:51;5.22;;;3.53;;
26838;SDS011;40088;51.214;6.786;2023-08-08T12:41:52;6.72;;;4.90;;
26838;SDS011;40088;51.214;6.786;2023-08-08T12:51:52;6.82;;;4.18;;
26838;SDS011;40088;51.214;6.786;2023-08-08T13:01:55;5.00;;;3.22;;
26838;SDS011;40088;51.214;6.786;2023-08-08T13:11:55;5.35;;;2.97;;
26838;SDS011;40088;51.214;6.786;2023-08-08T13:21:56;5.22;;;3.38;;
26838;SDS011;40088;51.214;6.786;2023-08-08T13:31:56;4.40;;;3.25;;
26838;SDS011;40088;51.214;6.786;2023-08-08T13:41:56;5.78;;;3.80;;
26838;SDS011;40088;51.214;6.786;2023-08-08T13:51:57;5.50;;;3.33;;
26838;SDS011;40088;51.214;6.786;2023-08-08T14:01:57;5.05;;;3.20;;
26838;SDS011;40088;51.214;6.786;2023-08-08T14:11:57;5.03;;;3.58;;
26838;SDS011;40088;51.214;6.786;2023-08-08T14:21:59;3.97;;;3.03;;
26838;SDS011;40088;51.214;6.786;2023-08-08T14:31:59;4.65;;;2.88;;
26838;SDS011;40088;51.214;6.786;2023-08-08T14:42:00;4.25;;;2.70;;
26838;SDS011;40088;51.214;6.786;2023-08-08T14:52:02;5.80;;;3.10;;
26838;SDS011;40088;51.214;6.786;2023-08-08T15:02:03;5.30;;;3.03;;
26838;SDS011;40088;51.214;6.786;2023-08-08T15:12:03;4.72;;;3.10;;
26838;SDS011;40088;51.214;6.786;2023-08-08T15:22:04;4.40;;;2.90;;
26838;SDS011;40088;51.214;6.786;2023-08-08T15:32:05;4.63;;;2.95;;
26838;SDS011;40088;51.214;6.786;2023-08-08T15:42:05;2.97;;;2.40;;
26838;SDS011;40088;51.214;6.786;2023-08-08T15:52:06;4.00;;;2.67;;
26838;SDS011;40088;51.214;6.786;2023-08-08T16:02:06;4.22;;;2.53;;
26838;SDS011;40088;51.214;6.786;2023-08-08T16:12:06;4.35;;;2.97;;
26838;SDS011;40088;51.214;6.786;2023-08-08T16:22:07;3.38;;;2.40;;
26838;SDS011;40088;51.214;6.786;2023-08-08T16:32:08;3.80;;;2.60;;
26838;SDS011;40088;51.214;6.786;2023-08-08T16:42:08;2.47;;;2.28;;
26838;SDS011;40088;51.214;6.786;2023-08-08T16:52:09;3.55;;;2.53;;
26838;SDS011;40088;51.214;6.786;2023-08-08T17:02:09;2.60;;;2.40;;
26838;SDS011;40088;51.214;6.786;2023-08-08T17:12:09;3.30;;;2.53;;
26838;SDS011;40088;51.214;6.786;2023-08-08T17:22:10;4.40;;;3.33;;
26838;SDS011;40088;51.214;6.786;2023-08-08T17:32:10;4.25;;;2.67;;
26838;SDS011;40088;51.214;6.786;2023-08-08T17:42:10;5.85;;;4.00;;
26838;SDS011;40088;51.214;6.786;2023-08-08T17:52:10;3.72;;;3.13;;
26838;SDS011;40088;51.214;6.786;2023-08-08T18:02:11;3.50;;;3.05;;
26838;SDS011;40088;51.214;6.786;2023-08-08T18:12:11;4.15;;;2.92;;
26838;SDS011;40088;51.214;6.786;2023-08-08T18:22:12;5.47;;;2.87;;
26838;SDS011;40088;51.214;6.786;2023-08-08T18:32:12;5.53;;;3.60;;
26838;SDS011;40088;51.214;6.786;2023-08-08T18:42:12;4.25;;;3.05;;
26838;SDS011;40088;51.214;6.786;2023-08-08T18:52:13;3.33;;;2.72;;
26838;SDS011;40088;51.214;6.786;2023-08-08T19:02:13;3.85;;;2.67;;
26838;SDS011;40088;51.214;6.786;2023-08-08T19:12:13;6.32;;;5.30;;
26838;SDS011;40088;51.214;6.786;2023-08-08T19:22:13;4.53;;;3.45;;
26838;SDS011;40088;51.214;6.786;2023-08-08T19:32:14;5.75;;;4.28;;
26838;SDS011;40088;51.214;6.786;2023-08-08T19:42:14;5.00;;;4.07;;
26838;SDS011;40088;51.214;6.786;2023-08-08T19:52:14;6.55;;;4.30;;
26838;SDS011;40088;51.214;6.786;2023-08-08T20:02:15;3.35;;;3.03;;
26838;SDS011;40088;51.214;6.786;2023-08-08T20:12:16;4.03;;;3.30;;
26838;SDS011;40088;51.214;6.786;2023-08-08T20:22:16;4.53;;;3.35;;
26838;SDS011;40088;51.214;6.786;2023-08-08T20:32:16;4.20;;;3.30;;
26838;SDS011;40088;51.214;6.786;2023-08-08T20:42:16;3.95;;;3.47;;
26838;SDS011;40088;51.214;6.786;2023-08-08T20:52:17;4.13;;;3.05;;
26838;SDS011;40088;51.214;6.786;2023-08-08T21:02:17;3.90;;;2.92;;
26838;SDS011;40088;51.214;6.786;2023-08-08T21:12:17;5.15;;;3.20;;
26838;SDS011;40088;51.214;6.786;2023-08-08T21:22:18;3.25;;;2.90;;
26838;SDS011;40088;51.214;6.786;2023-08-08T21:32:19;4.57;;;3.20;;
26838;SDS011;40088;51.214;6.786;2023-08-08T21:42:19;3.40;;;2.90;;
26838;SDS011;40088;51.214;6.786;2023-08-08T21:52:20;3.20;;;2.90;;
26838;SDS011;40088;51.214;6.786;2023-08-08T22:02:20;5.25;;;3.33;;
26838;SDS011;40088;51.214;6.786;2023-08-08T22:12:21;3.28;;;2.03;;
26838;SDS011;40088;51.214;6.786;2023-08-08T22:22:21;3.15;;;2.35;;
26838;SDS011;40088;51.214;6.786;2023-08-08T22:32:22;2.67;;;2.25;;
26838;SDS011;40088;51.214;6.786;2023-08-08T22:42:22;3.55;;;1.98;;
26838;SDS011;40088;51.214;6.786;2023-08-08T22:52:22;2.53;;;2.03;;
26838;SDS011;40088;51.214;6.786;2023-08-08T23:02:22;3.97;;;2.92;;
26838;SDS011;40088;51.214;6.786;2023-08-08T23:12:23;3.20;;;2.53;;
26838;SDS011;40088;51.214;6.786;2023-08-08T23:22:23;4.03;;;3.03;;
26838;SDS011;40088;51.214;6.786;2023-08-08T23:32:23;3.85;;;2.55;;
26838;SDS011;40088;51.214;6.786;2023-08-08T23:42:24;5.33;;;3.80;;
26838;SDS011;40088;51.214;6.786;2023-08-08T23:52:25;3.58;;;2.50;;
